createdAt,value
2023-01-17T00:02:22.621Z,2.03
2023-01-17T00:05:09.088Z,2.00
2023-01-17T00:07:55.646Z,2.01
2023-01-17T00:10:25.864Z,2.00
2023-01-17T00:13:02.159Z,1.97
2023-01-17T00:15:32.222Z,1.92
2023-01-17T00:18:00.004Z,1.93
2023-01-17T00:20:49.250Z,1.88
2023-01-17T00:23:43.966Z,1.81
2023-01-17T00:26:18.197Z,1.78
2023-01-17T00:28:46.518Z,1.71
2023-01-17T00:31:17.952Z,1.70
2023-01-17T00:33:45.778Z,1.71
2023-01-17T00:36:13.676Z,1.70
2023-01-17T00:38:41.340Z,1.57
2023-01-17T00:41:11.892Z,1.58
2023-01-17T00:43:58.849Z,1.55
2023-01-17T00:46:44.968Z,1.51
2023-01-17T00:49:31.514Z,1.47
2023-01-17T00:52:17.766Z,1.45
2023-01-17T00:55:03.886Z,1.50
2023-01-17T00:57:50.529Z,1.47
2023-01-17T01:00:37.510Z,1.46
2023-01-17T01:03:28.805Z,1.42
2023-01-17T01:06:14.969Z,1.40
2023-01-17T01:09:01.238Z,1.46
2023-01-17T01:11:47.559Z,1.45
2023-01-17T01:14:33.828Z,1.39
2023-01-17T01:17:19.981Z,1.46
2023-01-17T01:20:06.117Z,1.31
2023-01-17T01:22:52.476Z,1.29
2023-01-17T01:25:38.500Z,1.22
2023-01-17T01:28:30.719Z,1.21
2023-01-17T01:31:21.355Z,1.21
2023-01-17T01:33:50.825Z,1.26
2023-01-17T01:36:19.829Z,1.24
2023-01-17T01:38:47.578Z,1.16
2023-01-17T01:41:15.123Z,1.22
2023-01-17T01:43:51.531Z,1.14
2023-01-17T01:46:32.103Z,1.07
2023-01-17T01:49:05.176Z,1.06
2023-01-17T01:51:41.576Z,1.11
2023-01-17T01:54:20.617Z,1.06
2023-01-17T01:56:50.141Z,1.04
2023-01-17T01:59:21.310Z,1.01
2023-01-17T02:01:51.566Z,1.12
2023-01-17T02:04:21.232Z,1.09
2023-01-17T02:06:54.054Z,1.13
2023-01-17T02:09:22.151Z,1.11
2023-01-17T02:11:50.365Z,1.12
2023-01-17T02:14:19.835Z,1.11
2023-01-17T02:17:06.099Z,1.16
2023-01-17T02:20:21.614Z,1.13
2023-01-17T02:23:20.069Z,1.15
2023-01-17T02:26:05.786Z,1.19
2023-01-17T02:29:05.914Z,1.19
2023-01-17T02:31:47.349Z,1.23
2023-01-17T02:34:15.244Z,1.27
2023-01-17T02:36:49.853Z,1.32
2023-01-17T02:39:21.976Z,1.30
2023-01-17T02:42:02.523Z,1.27
2023-01-17T02:44:30.243Z,1.27
2023-01-17T02:46:59.370Z,1.27
2023-01-17T02:49:30.435Z,1.31
2023-01-17T02:52:18.839Z,1.26
2023-01-17T02:55:17.129Z,1.24
2023-01-17T02:57:59.772Z,1.29
2023-01-17T03:00:42.634Z,1.33
2023-01-17T03:03:31.228Z,1.29
2023-01-17T03:06:13.813Z,1.24
2023-01-17T03:08:47.503Z,1.22
2023-01-17T03:11:16.627Z,1.25
2023-01-17T03:13:44.549Z,1.26
2023-01-17T03:16:19.690Z,1.23
2023-01-17T03:18:47.499Z,1.25
2023-01-17T03:21:15.338Z,1.23
2023-01-17T03:23:44.283Z,1.19
2023-01-17T03:26:11.782Z,1.19
2023-01-17T03:28:39.657Z,1.24
2023-01-17T03:31:07.298Z,1.19
2023-01-17T03:33:35.589Z,1.21
2023-01-17T03:36:04.883Z,1.16
2023-01-17T03:38:33.461Z,1.14
2023-01-17T03:41:00.950Z,1.14
2023-01-17T03:43:28.584Z,1.13
2023-01-17T03:46:07.414Z,1.13
2023-01-17T03:48:35.175Z,1.11
2023-01-17T03:51:02.747Z,1.11
2023-01-17T03:53:30.508Z,1.14
2023-01-17T03:55:58.051Z,1.12
2023-01-17T03:58:26.085Z,1.14
2023-01-17T04:00:53.923Z,1.16
2023-01-17T04:03:22.409Z,1.19
2023-01-17T04:05:52.024Z,1.09
2023-01-17T04:08:19.803Z,1.12
2023-01-17T04:10:47.492Z,1.16
2023-01-17T04:13:16.797Z,1.12
2023-01-17T04:15:46.205Z,1.16
2023-01-17T04:18:14.041Z,1.24
2023-01-17T04:20:41.587Z,1.15
2023-01-17T04:23:09.316Z,1.10
2023-01-17T04:25:37.277Z,1.09
2023-01-17T04:28:05.200Z,1.16
2023-01-17T04:30:33.594Z,1.12
2023-01-17T04:33:01.141Z,1.11
2023-01-17T04:35:33.565Z,1.13
2023-01-17T04:38:01.356Z,1.11
2023-01-17T04:40:29.701Z,1.12
2023-01-17T04:42:58.307Z,1.14
2023-01-17T04:45:26.029Z,1.07
2023-01-17T04:47:53.730Z,1.15
2023-01-17T04:50:21.267Z,1.19
2023-01-17T04:52:48.845Z,1.21
2023-01-17T04:55:16.441Z,1.19
2023-01-17T04:57:43.954Z,1.20
2023-01-17T05:00:12.098Z,1.15
2023-01-17T05:02:40.360Z,1.13
2023-01-17T05:05:08.867Z,1.15
2023-01-17T05:07:36.638Z,1.16
2023-01-17T05:10:04.690Z,1.16
2023-01-17T05:12:32.421Z,1.16
2023-01-17T05:15:00.461Z,1.12
2023-01-17T05:17:28.078Z,1.15
2023-01-17T05:19:55.653Z,1.15
2023-01-17T05:22:23.181Z,1.09
2023-01-17T05:24:50.714Z,1.06
2023-01-17T05:27:18.318Z,1.10
2023-01-17T05:29:45.947Z,1.04
2023-01-17T05:32:13.487Z,1.03
2023-01-17T05:34:41.079Z,1.00
2023-01-17T05:37:08.677Z,1.03
2023-01-17T05:39:36.708Z,1.00
2023-01-17T05:42:05.141Z,1.00
2023-01-17T05:44:32.645Z,0.97
2023-01-17T05:47:00.549Z,1.02
2023-01-17T05:49:28.121Z,0.98
2023-01-17T05:51:55.888Z,1.01
2023-01-17T05:54:23.378Z,1.04
2023-01-17T05:56:50.959Z,1.05
2023-01-17T05:59:28.568Z,1.09
2023-01-17T06:02:03.880Z,1.13
2023-01-17T06:04:31.620Z,1.09
2023-01-17T06:06:59.134Z,1.07
2023-01-17T06:09:26.725Z,1.08
2023-01-17T06:11:54.244Z,1.17
2023-01-17T06:14:21.967Z,1.13
2023-01-17T06:16:50.069Z,1.19
2023-01-17T06:19:17.777Z,1.19
2023-01-17T06:21:45.294Z,1.16
2023-01-17T06:24:13.371Z,1.22
2023-01-17T06:26:43.829Z,1.23
2023-01-17T06:29:12.441Z,1.21
2023-01-17T06:31:40.273Z,1.29
2023-01-17T06:34:07.956Z,1.36
2023-01-17T06:36:35.503Z,1.32
2023-01-17T06:39:03.036Z,1.34
2023-01-17T06:41:31.033Z,1.39
2023-01-17T06:43:58.673Z,1.43
2023-01-17T06:46:26.267Z,1.55
2023-01-17T06:48:54.019Z,1.47
2023-01-17T06:51:21.864Z,1.50
2023-01-17T06:53:49.721Z,1.56
2023-01-17T06:56:17.236Z,1.56
2023-01-17T06:58:44.838Z,1.62
2023-01-17T07:01:13.572Z,1.66
2023-01-17T07:03:41.755Z,1.72
2023-01-17T07:06:09.657Z,1.78
2023-01-17T07:08:37.705Z,1.75
2023-01-17T07:11:10.447Z,1.74
2023-01-17T07:13:38.671Z,1.75
2023-01-17T07:16:08.215Z,1.84
2023-01-17T07:18:36.544Z,1.93
2023-01-17T07:21:04.514Z,1.98
2023-01-17T07:23:32.205Z,2.03
2023-01-17T07:26:00.871Z,1.99
2023-01-17T07:28:28.591Z,1.97
2023-01-17T07:30:56.611Z,2.03
2023-01-17T07:33:25.465Z,2.12
2023-01-17T07:35:56.031Z,2.24
2023-01-17T07:38:23.554Z,2.13
2023-01-17T07:40:51.107Z,2.17
2023-01-17T07:43:18.595Z,2.27
2023-01-17T07:45:51.122Z,2.32
2023-01-17T07:48:20.700Z,2.43
2023-01-17T07:51:00.864Z,2.40
2023-01-17T07:53:31.373Z,2.44
2023-01-17T07:56:07.643Z,2.42
2023-01-17T07:58:36.444Z,2.42
2023-01-17T08:01:13.460Z,2.46
2023-01-17T08:03:41.539Z,2.56
2023-01-17T08:06:18.637Z,2.56
2023-01-17T08:08:47.501Z,2.63
2023-01-17T08:11:15.558Z,2.61
2023-01-17T12:35:17.056Z,5.34
2023-01-17T12:38:00.256Z,5.39
2023-01-17T12:40:49.683Z,5.43
2023-01-17T12:43:33.084Z,5.43
2023-01-17T12:46:07.633Z,5.39
2023-01-17T12:48:39.370Z,5.45
2023-01-17T12:51:09.422Z,5.52
2023-01-17T12:53:44.198Z,5.57
2023-01-17T12:56:25.189Z,5.56
2023-01-17T12:59:07.677Z,5.57
2023-01-17T13:01:43.324Z,5.57
2023-01-17T13:04:28.162Z,5.52
2023-01-17T13:06:58.731Z,5.55
2023-01-17T13:09:39.797Z,5.58
2023-01-17T13:12:14.464Z,5.63
2023-01-17T13:14:47.126Z,5.63
2023-01-17T13:17:52.109Z,5.70
2023-01-17T13:20:31.810Z,5.69
2023-01-17T13:23:23.742Z,5.69
2023-01-17T13:25:51.495Z,5.72
2023-01-17T13:28:33.808Z,5.66
2023-01-17T13:31:05.645Z,5.70
2023-01-17T13:34:02.779Z,5.66
2023-01-17T13:37:09.388Z,5.69
2023-01-17T13:40:01.292Z,5.67
2023-01-17T13:42:41.309Z,5.66
2023-01-17T13:45:18.172Z,5.71
2023-01-17T13:47:45.745Z,5.71
2023-01-17T13:50:36.240Z,5.65
2023-01-17T13:53:28.968Z,5.66
2023-01-17T13:56:19.857Z,5.63
2023-01-17T13:58:50.660Z,5.62
2023-01-17T14:01:22.144Z,5.69
2023-01-17T14:03:50.305Z,5.66
2023-01-17T14:06:36.450Z,5.68
2023-01-17T14:09:13.107Z,5.71
2023-01-17T14:11:56.474Z,5.70
2023-01-17T14:14:42.923Z,5.74
2023-01-17T14:17:16.316Z,5.74
2023-01-17T14:19:51.078Z,5.71
2023-01-17T14:22:18.595Z,5.72
2023-01-17T14:25:20.095Z,5.73
2023-01-17T14:27:54.551Z,5.73
2023-01-17T14:30:32.993Z,5.71
2023-01-17T14:33:04.853Z,5.72
2023-01-17T14:35:38.713Z,5.70
2023-01-17T14:38:23.118Z,5.73
2023-01-17T14:40:57.976Z,5.68
2023-01-17T14:43:28.765Z,5.67
2023-01-17T14:46:02.473Z,5.65
2023-01-17T14:48:31.073Z,5.64
2023-01-17T14:51:02.135Z,5.59
2023-01-17T14:53:34.000Z,5.57
2023-01-17T14:56:15.824Z,5.62
2023-01-17T14:58:46.578Z,5.61
2023-01-17T15:01:18.902Z,5.63
2023-01-17T15:03:52.883Z,5.63
2023-01-17T15:06:34.463Z,5.60
2023-01-17T15:09:09.390Z,5.60
2023-01-17T15:11:37.614Z,5.59
2023-01-17T15:14:07.125Z,5.56
2023-01-17T15:16:36.562Z,5.63
2023-01-17T15:19:12.820Z,5.62
2023-01-17T15:21:43.364Z,5.60
2023-01-17T15:24:25.452Z,5.56
2023-01-17T15:26:53.382Z,5.56
2023-01-17T15:29:26.769Z,5.57
2023-01-17T15:32:00.498Z,5.63
2023-01-17T15:34:44.437Z,5.56
2023-01-17T15:37:23.250Z,5.58
2023-01-17T15:39:50.871Z,5.49
2023-01-17T15:42:25.853Z,5.51
2023-01-17T15:44:59.859Z,5.47
2023-01-17T15:47:37.648Z,5.39
2023-01-17T15:50:20.539Z,5.41
2023-01-17T15:52:57.779Z,5.39
2023-01-17T15:55:34.837Z,5.37
2023-01-17T15:58:04.133Z,5.35
2023-01-17T16:00:39.338Z,5.32
2023-01-17T16:03:26.602Z,5.36
2023-01-17T16:05:57.776Z,5.35
2023-01-17T16:08:31.280Z,5.34
2023-01-17T16:11:02.491Z,5.37
2023-01-17T16:13:43.439Z,5.37
2023-01-17T16:16:16.220Z,5.36
2023-01-17T16:18:46.638Z,5.30
2023-01-17T16:21:23.932Z,5.32
2023-01-17T16:23:52.219Z,5.32
2023-01-17T16:26:20.042Z,5.29
2023-01-17T16:28:48.121Z,5.29
2023-01-17T16:31:16.730Z,5.21
2023-01-17T16:33:52.326Z,5.24
2023-01-17T16:36:21.300Z,5.25
2023-01-17T16:38:50.248Z,5.27
2023-01-17T16:41:18.469Z,5.23
2023-01-17T16:43:46.094Z,5.21
2023-01-17T16:46:16.902Z,5.20
2023-01-17T16:48:46.747Z,5.22
2023-01-17T16:51:14.392Z,5.14
2023-01-17T16:53:42.034Z,5.14
2023-01-17T16:56:16.961Z,5.17
2023-01-17T16:58:44.904Z,5.17
2023-01-17T17:01:17.109Z,5.15
2023-01-17T17:03:49.017Z,5.14
2023-01-17T17:06:19.671Z,5.08
2023-01-17T17:08:47.787Z,5.05
2023-01-17T17:11:21.455Z,5.07
2023-01-17T17:13:50.800Z,5.02
2023-01-17T17:16:21.862Z,4.97
2023-01-17T17:18:58.567Z,4.96
2023-01-17T17:21:27.492Z,4.97
2023-01-17T17:24:03.468Z,4.90
2023-01-17T17:26:37.305Z,4.92
2023-01-17T17:29:10.549Z,4.87
2023-01-17T17:31:41.169Z,4.88
2023-01-17T17:34:13.607Z,4.88
2023-01-17T17:36:42.148Z,4.88
2023-01-17T17:39:17.157Z,4.91
2023-01-17T17:41:45.968Z,4.86
2023-01-17T17:44:13.702Z,4.85
2023-01-17T17:46:43.005Z,4.89
2023-01-17T17:49:10.625Z,4.92
2023-01-17T17:51:39.862Z,4.96
2023-01-17T17:54:10.299Z,4.92
2023-01-17T17:56:38.793Z,4.96
2023-01-17T17:59:09.101Z,4.99
2023-01-17T18:01:38.397Z,5.01
2023-01-17T18:04:09.409Z,5.02
2023-01-17T18:06:38.671Z,5.00
2023-01-17T18:09:08.137Z,5.00
2023-01-17T18:11:40.616Z,5.00
2023-01-17T18:14:12.764Z,4.94
2023-01-17T18:16:43.252Z,4.93
2023-01-17T18:19:19.769Z,4.94
2023-01-17T18:21:58.201Z,4.96
2023-01-17T18:24:27.649Z,4.89
2023-01-17T18:26:57.668Z,4.97
2023-01-17T18:29:29.167Z,4.95
2023-01-17T18:31:56.996Z,4.92
2023-01-17T18:34:31.504Z,4.93
2023-01-17T18:37:14.093Z,4.89
2023-01-17T18:39:42.830Z,4.84
2023-01-17T18:42:11.962Z,4.88
2023-01-17T18:44:39.522Z,4.84
2023-01-17T18:47:07.187Z,4.79
2023-01-17T18:49:35.147Z,4.79
2023-01-17T18:52:03.113Z,4.79
2023-01-17T18:54:32.004Z,4.78
2023-01-17T18:56:59.612Z,4.83
2023-01-17T18:59:28.055Z,4.82
2023-01-17T19:01:56.035Z,4.79
2023-01-17T19:04:23.633Z,4.80
2023-01-17T19:06:51.309Z,4.79
2023-01-17T19:09:19.524Z,4.78
2023-01-17T19:11:47.679Z,4.78
2023-01-17T19:14:15.905Z,4.76
2023-01-17T19:16:44.253Z,4.68
2023-01-17T19:19:15.101Z,4.70
2023-01-17T19:21:43.651Z,4.70
2023-01-17T19:24:13.330Z,4.71
2023-01-17T19:26:42.089Z,4.71
2023-01-17T19:29:10.478Z,4.70
2023-01-17T19:31:42.977Z,4.67
2023-01-17T19:34:14.288Z,4.68
2023-01-17T19:36:42.476Z,4.63
2023-01-17T19:39:10.615Z,4.61
2023-01-17T19:41:44.748Z,4.62
2023-01-17T19:44:14.040Z,4.59
2023-01-17T19:46:41.679Z,4.61
2023-01-17T19:49:09.875Z,4.55
2023-01-17T19:51:37.543Z,4.59
2023-01-17T19:54:06.618Z,4.61
2023-01-17T19:56:34.532Z,4.57
2023-01-17T19:59:02.483Z,4.59
2023-01-17T20:01:33.400Z,4.61
2023-01-17T20:04:03.252Z,4.60
2023-01-17T20:06:35.404Z,4.64
2023-01-17T20:09:04.509Z,4.62
2023-01-17T20:11:33.252Z,4.65
2023-01-17T20:14:01.340Z,4.66
2023-01-17T20:16:31.168Z,4.68
2023-01-17T20:18:59.572Z,4.74
2023-01-17T20:21:29.139Z,4.75
2023-01-17T20:23:58.698Z,4.78
2023-01-17T20:26:34.531Z,4.85
2023-01-17T20:29:10.373Z,4.84
2023-01-17T20:31:40.546Z,4.85
2023-01-17T20:34:10.823Z,4.85
2023-01-17T20:36:40.597Z,4.89
2023-01-17T20:39:09.353Z,4.94
2023-01-17T20:41:42.259Z,4.91
2023-01-17T20:44:15.520Z,4.91
2023-01-17T20:46:43.507Z,4.91
2023-01-17T20:49:16.913Z,4.92
2023-01-17T20:51:46.218Z,4.93
2023-01-17T20:54:30.656Z,4.92
2023-01-17T20:56:58.264Z,4.90
2023-01-17T20:59:25.830Z,4.96
2023-01-17T21:01:53.538Z,4.94
2023-01-17T21:04:25.832Z,4.91
2023-01-17T21:06:53.563Z,4.92
2023-01-17T21:09:22.068Z,4.97
2023-01-17T21:11:50.566Z,4.98
2023-01-17T21:14:18.224Z,4.93
2023-01-17T21:16:46.032Z,4.94
2023-01-17T21:19:15.038Z,4.97
2023-01-17T21:21:42.575Z,4.99
2023-01-17T21:24:10.228Z,4.98
2023-01-17T21:26:38.982Z,5.05
2023-01-17T21:29:07.220Z,5.00
2023-01-17T21:31:36.725Z,5.06
2023-01-17T21:34:07.315Z,5.08
2023-01-17T21:36:37.467Z,5.06
2023-01-17T21:39:13.107Z,5.13
2023-01-17T21:41:41.540Z,5.14
2023-01-17T21:44:14.778Z,5.12
2023-01-17T21:46:42.828Z,5.07
2023-01-17T21:49:12.017Z,5.11
2023-01-17T21:51:52.761Z,5.16
2023-01-17T21:54:41.503Z,5.17
2023-01-17T22:01:17.914Z,5.28
2023-01-17T22:03:49.872Z,5.30
2023-01-17T22:06:18.692Z,5.28
2023-01-17T22:08:46.646Z,5.30
2023-01-17T22:11:16.819Z,5.30
2023-01-17T22:13:45.493Z,5.31
2023-01-17T22:16:15.868Z,5.35
2023-01-17T22:18:45.077Z,5.37
2023-01-17T22:21:15.659Z,5.37
2023-01-17T22:23:48.743Z,5.43
2023-01-17T22:26:16.673Z,5.40
2023-01-17T22:28:44.442Z,5.45
2023-01-17T22:31:21.524Z,5.52
2023-01-17T22:34:01.984Z,5.48
2023-01-17T22:36:32.223Z,5.55
2023-01-17T22:39:00.535Z,5.54
2023-01-17T22:41:34.726Z,5.59
2023-01-17T22:44:02.959Z,5.54
2023-01-17T22:46:32.684Z,5.52
2023-01-17T22:49:00.457Z,5.54
2023-01-17T22:51:29.405Z,5.51
2023-01-17T22:53:59.252Z,5.47
2023-01-17T22:56:29.554Z,5.46
2023-01-17T22:59:03.267Z,5.47
2023-01-17T23:01:33.008Z,5.45
2023-01-17T23:04:02.937Z,5.47
2023-01-17T23:06:38.184Z,5.44
2023-01-17T23:09:13.428Z,5.52
2023-01-17T23:11:43.305Z,5.52
2023-01-17T23:14:19.177Z,5.54
2023-01-17T23:17:07.147Z,5.52
2023-01-17T23:19:38.074Z,5.53
2023-01-17T23:22:21.522Z,5.51
2023-01-17T23:24:59.043Z,5.55
2023-01-17T23:27:52.166Z,5.55
2023-01-17T23:30:40.597Z,5.59
2023-01-17T23:33:10.633Z,5.58
2023-01-17T23:35:42.072Z,5.58
2023-01-17T23:38:29.261Z,5.61
2023-01-17T23:41:25.150Z,5.59
2023-01-17T23:43:54.002Z,5.64
2023-01-17T23:46:24.586Z,5.65
2023-01-17T23:48:52.730Z,5.69
2023-01-17T23:51:20.740Z,5.72
2023-01-17T23:53:55.250Z,5.70
2023-01-17T23:56:24.853Z,5.74
2023-01-17T23:58:52.428Z,5.71
